Time;durP1;ratioP1;P1;durP2;ratioP2;P2;SDS_P1;SDS_P2;PMS_P1;PMS_P2;Temp;Humidity;BMP_temperature;BMP_pressure;BME280_temperature;BME280_humidity;BME280_pressure;Samples;Min_cycle;Max_cycle;Signal;HPM_P1;HPM_P2
2022/04/12 00:01:34;;;;;;;6.65;3.12;;;;;;;6.94;45.44;100086.78;1745829;79;21016;-53
2022/04/12 00:04:01;;;;;;;8.48;2.70;;;;;;;6.94;45.89;100086.30;1755585;80;20995;-52
2022/04/12 00:06:29;;;;;;;5.92;2.40;;;;;;;6.92;45.37;100084.27;1757764;80;21560;-53
2022/04/12 00:08:55;;;;;;;8.55;2.92;;;;;;;6.91;45.33;100083.06;1736994;80;21054;-53
2022/04/12 00:11:22;;;;;;;7.15;3.08;;;;;;;6.93;45.69;100090.36;1743968;79;21088;-52
2022/04/12 00:13:49;;;;;;;5.75;2.35;;;;;;;6.93;45.64;100091.19;1740192;80;21112;-53
2022/04/12 00:16:17;;;;;;;6.60;2.55;;;;;;;6.92;45.85;100086.06;1746244;79;21036;-52
2022/04/12 00:19:06;;;;;;;9.20;3.27;;;;;;;6.90;45.29;100091.87;1736679;79;21068;-53
2022/04/12 00:21:13;;;;;;;8.33;2.95;;;;;;;6.90;45.53;100091.39;1748171;80;21062;-53
2022/04/12 00:23:40;;;;;;;7.97;2.98;;;;;;;6.93;45.78;100094.28;1765301;80;21035;-52
2022/04/12 00:26:07;;;;;;;5.30;2.17;;;;;;;6.91;45.58;100086.54;1763987;79;21157;-53
2022/04/12 00:28:34;;;;;;;9.18;2.92;;;;;;;6.91;45.53;100090.91;1750819;80;21085;-53
2022/04/12 00:31:02;;;;;;;7.35;2.65;;;;;;;6.90;45.74;100080.94;1740200;79;21379;-52
2022/04/12 00:33:30;;;;;;;6.12;2.40;;;;;;;6.88;45.61;100086.27;1749725;79;21024;-53
2022/04/12 00:36:00;;;;;;;8.68;2.42;;;;;;;6.91;45.78;100092.22;1739588;81;21028;-53
2022/04/12 00:38:25;;;;;;;5.83;2.90;;;;;;;6.89;46.03;100083.17;1736205;81;21146;-53
2022/04/12 00:40:53;;;;;;;7.20;2.87;;;;;;;6.89;45.53;100094.94;1738576;79;21028;-53
2022/04/12 00:43:20;;;;;;;8.58;2.85;;;;;;;6.87;45.68;100085.89;1748483;81;21052;-53
2022/04/12 00:45:47;;;;;;;8.23;2.55;;;;;;;6.87;45.59;100091.60;1749403;81;21063;-52
2022/04/12 00:48:14;;;;;;;8.08;2.77;;;;;;;6.87;46.00;100081.14;1742865;79;21050;-52
2022/04/12 00:50:41;;;;;;;7.22;2.70;;;;;;;6.88;45.58;100088.05;1743496;79;21252;-53
2022/04/12 00:53:08;;;;;;;12.15;3.70;;;;;;;6.87;45.72;100079.83;1742034;79;21106;-52
2022/04/12 00:55:36;;;;;;;10.10;2.67;;;;;;;6.87;45.39;100085.06;1766609;80;21079;-53
2022/04/12 00:58:07;;;;;;;5.90;2.58;;;;;;;6.85;45.29;100085.16;1745488;81;21207;-53
2022/04/12 01:00:35;;;;;;;10.53;2.87;;;;;;;6.86;45.40;100085.55;1742310;79;21168;-52
2022/04/12 01:03:02;;;;;;;7.83;2.52;;;;;;;6.86;45.48;100079.48;1760373;79;21152;-53
2022/04/12 01:05:30;;;;;;;7.35;2.90;;;;;;;6.85;45.57;100073.40;1750201;80;21020;-53
2022/04/12 01:07:57;;;;;;;7.78;2.65;;;;;;;6.84;45.68;100076.12;1763400;79;21505;-53
2022/04/12 01:10:25;;;;;;;8.30;3.00;;;;;;;6.82;45.61;100075.39;1745296;80;21596;-52
2022/04/12 01:12:53;;;;;;;8.43;2.62;;;;;;;6.80;45.62;100080.73;1745755;79;21085;-53
2022/04/12 01:15:24;;;;;;;10.55;3.02;;;;;;;6.78;45.63;100068.23;1756088;80;20992;-53
2022/04/12 01:17:51;;;;;;;6.15;2.58;;;;;;;6.77;45.76;100070.48;1752754;79;21090;-53
2022/04/12 01:20:23;;;;;;;8.15;2.35;;;;;;;6.76;45.84;100067.97;1755776;80;21039;-53
2022/04/12 01:23:18;;;;;;;6.58;2.52;;;;;;;6.74;46.02;100068.55;1765389;79;21140;-53
2022/04/12 01:25:44;;;;;;;7.25;2.45;;;;;;;6.71;46.02;100072.23;1744185;81;21086;-52
2022/04/12 01:28:12;;;;;;;5.67;2.22;;;;;;;6.67;46.15;100070.30;1768861;80;21154;-52
2022/04/12 01:30:39;;;;;;;7.72;2.33;;;;;;;6.64;46.36;100074.87;1745807;79;21000;-52
2022/04/12 01:33:07;;;;;;;9.83;2.65;;;;;;;6.60;46.33;100065.10;1756608;79;21023;-52
2022/04/12 01:35:34;;;;;;;6.62;2.25;;;;;;;6.60;46.50;100076.04;1753505;79;21019;-53
2022/04/12 01:38:01;;;;;;;5.85;2.72;;;;;;;6.57;46.49;100069.70;1763306;80;21102;-53
2022/04/12 01:40:28;;;;;;;7.17;2.62;;;;;;;6.56;46.60;100057.59;1770047;80;21154;-53
2022/04/12 01:42:56;;;;;;;9.40;2.70;;;;;;;6.54;46.70;100042.02;1769994;79;21004;-53
2022/04/12 01:45:24;;;;;;;10.10;2.52;;;;;;;6.48;46.71;100031.48;1773034;80;21055;-53
2022/04/12 01:47:51;;;;;;;6.28;2.70;;;;;;;6.49;46.82;100038.88;1754560;79;21994;-53
2022/04/12 01:50:18;;;;;;;6.05;2.52;;;;;;;6.45;46.94;100034.79;1746422;79;21445;-52
2022/04/12 01:52:46;;;;;;;5.72;2.30;;;;;;;6.42;47.05;100030.63;1749054;79;21062;-54
2022/04/12 01:55:14;;;;;;;7.97;2.80;;;;;;;6.39;47.12;100031.28;1753184;80;21014;-53
2022/04/12 01:57:40;;;;;;;7.15;2.40;;;;;;;6.33;46.99;100021.61;1747940;79;21060;-52
2022/04/12 02:00:09;;;;;;;6.05;2.30;;;;;;;6.31;47.03;100025.28;1744410;82;21086;-53
2022/04/12 02:02:42;;;;;;;6.85;2.27;;;;;;;6.28;47.15;100025.01;1760975;80;21604;-53
2022/04/12 02:05:09;;;;;;;6.50;2.30;;;;;;;6.28;47.10;100012.42;1763754;79;21861;-53
2022/04/12 02:07:36;;;;;;;9.68;3.35;;;;;;;6.24;47.18;100005.27;1758692;80;21031;-53
2022/04/12 02:10:04;;;;;;;6.97;2.47;;;;;;;6.23;47.38;100019.26;1758446;80;21039;-53
2022/04/12 02:12:31;;;;;;;7.50;2.08;;;;;;;6.24;47.37;100014.89;1751620;79;21059;-52
2022/04/12 02:14:59;;;;;;;7.22;2.77;;;;;;;6.23;47.38;100023.66;1747444;79;21062;-53
2022/04/12 02:17:26;;;;;;;8.50;2.62;;;;;;;6.19;47.14;100007.84;1756960;79;21036;-53
2022/04/12 02:19:53;;;;;;;7.67;2.65;;;;;;;6.19;47.37;100019.59;1773539;80;21512;-53
2022/04/12 02:22:19;;;;;;;8.95;2.67;;;;;;;6.21;47.26;100019.02;1764285;80;21008;-53
2022/04/12 02:24:46;;;;;;;7.50;2.42;;;;;;;6.19;47.37;100018.28;1754553;79;22126;-53
2022/04/12 02:27:14;;;;;;;10.93;2.40;;;;;;;6.18;47.25;100028.36;1755230;79;21358;-53
2022/04/12 02:29:40;;;;;;;6.15;2.30;;;;;;;6.16;47.13;100026.33;1754038;80;21961;-52
2022/04/12 02:32:08;;;;;;;6.67;2.20;;;;;;;6.15;47.23;100035.92;1747967;80;21063;-53
2022/04/12 02:34:35;;;;;;;5.72;2.17;;;;;;;6.16;47.40;100037.60;1748137;80;21483;-53
2022/04/12 02:37:01;;;;;;;7.25;2.20;;;;;;;6.14;47.38;100028.56;1757610;79;21086;-53
2022/04/12 02:39:28;;;;;;;4.78;1.57;;;;;;;6.13;47.46;100026.87;1745524;80;21067;-53
2022/04/12 02:41:55;;;;;;;5.60;2.40;;;;;;;6.11;47.69;100030.06;1747262;79;21226;-53
2022/04/12 02:44:21;;;;;;;7.87;2.75;;;;;;;6.11;47.86;100030.55;1752334;80;21035;-53
2022/04/12 02:46:48;;;;;;;6.47;2.40;;;;;;;6.07;47.96;100017.30;1765964;79;21044;-53
2022/04/12 02:49:14;;;;;;;6.00;1.90;;;;;;;6.05;47.79;100029.64;1749444;79;21098;-53
2022/04/12 02:51:41;;;;;;;10.35;2.55;;;;;;;6.02;48.08;100028.53;1746421;79;21003;-52
2022/04/12 02:54:08;;;;;;;7.97;2.67;;;;;;;6.01;48.11;100029.48;1745626;80;21166;-53
2022/04/12 02:56:35;;;;;;;7.72;1.87;;;;;;;5.98;48.24;100029.69;1744793;80;21089;-52
2022/04/12 02:59:03;;;;;;;6.90;2.27;;;;;;;5.95;48.27;100031.55;1683202;82;21051;-53
2022/04/12 03:01:30;;;;;;;8.03;2.42;;;;;;;5.92;48.20;100037.44;1757204;80;21012;-53
2022/04/12 03:03:56;;;;;;;5.95;2.37;;;;;;;5.91;48.34;100037.06;1757968;80;21571;-53
2022/04/12 03:06:23;;;;;;;6.80;2.10;;;;;;;5.88;48.54;100037.26;1748467;80;21795;-53
2022/04/12 03:08:51;;;;;;;7.62;2.42;;;;;;;5.84;48.64;100037.94;1744327;79;21257;-53
2022/04/12 03:11:19;;;;;;;7.95;2.50;;;;;;;5.81;48.80;100028.16;1746696;81;21056;-53
2022/04/12 03:13:47;;;;;;;6.92;2.60;;;;;;;5.79;48.92;100027.44;1748201;81;21466;-53
2022/04/12 03:16:15;;;;;;;5.87;2.08;;;;;;;5.75;49.05;100028.11;1763380;81;21079;-53
2022/04/12 03:18:43;;;;;;;5.17;2.10;;;;;;;5.72;49.14;100029.61;1751371;80;21231;-53
2022/04/12 03:21:09;;;;;;;5.42;1.98;;;;;;;5.70;49.33;100029.70;1762190;81;21023;-53
2022/04/12 03:23:36;;;;;;;5.55;1.82;;;;;;;5.65;49.33;100026.56;1757386;80;21062;-53
2022/04/12 03:26:04;;;;;;;10.90;2.20;;;;;;;5.65;49.48;100023.09;1761906;81;21027;-53
2022/04/12 03:28:30;;;;;;;6.85;2.10;;;;;;;5.62;49.34;100021.54;1758549;79;21134;-53
2022/04/12 03:30:57;;;;;;;4.20;1.72;;;;;;;5.60;49.43;100022.11;1765085;80;21146;-53
2022/04/12 03:33:25;;;;;;;7.40;2.62;;;;;;;5.56;49.71;100018.88;1758854;81;21059;-53
2022/04/12 03:35:52;;;;;;;7.03;2.10;;;;;;;5.56;49.50;100017.56;1760278;80;21075;-53
2022/04/12 03:38:19;;;;;;;6.28;2.65;;;;;;;5.55;49.58;100017.66;1759721;79;21031;-53
2022/04/12 03:40:46;;;;;;;6.80;2.08;;;;;;;5.55;49.57;100023.70;1763089;79;21044;-53
2022/04/12 03:43:15;;;;;;;5.90;2.33;;;;;;;5.55;49.61;100026.80;1763518;79;21055;-53
2022/04/12 03:45:41;;;;;;;9.20;2.00;;;;;;;5.54;49.50;100035.55;1763083;81;21118;-53
2022/04/12 03:48:08;;;;;;;4.92;1.87;;;;;;;5.55;49.48;100035.45;1757171;80;21000;-53
2022/04/12 03:50:37;;;;;;;5.28;1.72;;;;;;;5.55;49.55;100035.94;1758664;80;21042;-53
2022/04/12 03:53:06;;;;;;;5.47;2.02;;;;;;;5.55;49.55;100043.77;1758835;79;21026;-53
2022/04/12 03:55:34;;;;;;;5.47;2.05;;;;;;;5.53;49.29;100034.72;1760374;81;21756;-53
2022/04/12 03:58:04;;;;;;;5.08;2.12;;;;;;;5.55;49.11;100039.84;1758769;79;21048;-53
2022/04/12 04:00:33;;;;;;;6.83;2.10;;;;;;;5.55;49.25;100035.45;1758305;80;21066;-53
2022/04/12 04:03:00;;;;;;;4.65;1.77;;;;;;;5.56;49.36;100038.89;1755173;80;21075;-53
2022/04/12 04:05:27;;;;;;;4.50;1.82;;;;;;;5.55;49.12;100035.45;1759389;81;21041;-53
2022/04/12 04:07:53;;;;;;;5.03;1.90;;;;;;;5.57;49.19;100049.23;1757277;79;21133;-52
2022/04/12 04:10:21;;;;;;;5.85;1.87;;;;;;;5.58;49.10;100051.37;1756398;79;21046;-54
2022/04/12 04:12:48;;;;;;;4.75;1.70;;;;;;;5.57;48.85;100053.63;1754528;81;21086;-54
2022/04/12 04:15:15;;;;;;;4.70;1.60;;;;;;;5.61;48.85;100055.56;1762536;81;21500;-53
2022/04/12 04:17:45;;;;;;;7.78;2.33;;;;;;;5.62;48.92;100050.25;1760712;81;21543;-51
2022/04/12 04:20:16;;;;;;;5.97;2.10;;;;;;;5.65;48.83;100057.89;1758385;79;21613;-51
2022/04/12 04:22:43;;;;;;;6.47;1.52;;;;;;;5.66;48.54;100066.06;1761628;79;21538;-54
2022/04/12 04:25:13;;;;;;;6.37;1.50;;;;;;;5.69;48.66;100071.58;1759245;80;21047;-54
2022/04/12 04:27:41;;;;;;;4.83;2.00;;;;;;;5.72;48.70;100071.38;1755098;81;21106;-53
2022/04/12 04:30:11;;;;;;;7.10;1.87;;;;;;;5.73;48.59;100069.12;1755132;80;21575;-53
2022/04/12 04:32:38;;;;;;;7.17;2.15;;;;;;;5.75;48.48;100068.10;1752744;79;21135;-54
2022/04/12 04:35:06;;;;;;;7.00;1.87;;;;;;;5.79;48.34;100072.65;1760174;80;21062;-54
2022/04/12 04:37:46;;;;;;;5.00;1.60;;;;;;;5.82;48.27;100072.45;1758675;80;21099;-54
2022/04/12 04:40:20;;;;;;;5.55;1.87;;;;;;;5.84;48.26;100070.58;1756383;80;21050;-54
2022/04/12 04:42:49;;;;;;;7.87;2.50;;;;;;;5.86;47.87;100074.39;1749365;81;21094;-54
2022/04/12 04:45:15;;;;;;;7.83;1.95;;;;;;;5.89;47.97;100072.89;1757657;79;21159;-54
2022/04/12 04:47:53;;;;;;;5.60;2.12;;;;;;;5.92;47.92;100075.31;1754350;81;21020;-54
2022/04/12 04:50:22;;;;;;;7.97;2.10;;;;;;;5.94;47.61;100071.64;1753724;79;21539;-51
2022/04/12 04:52:49;;;;;;;6.95;2.50;;;;;;;5.99;47.54;100067.94;1758029;80;21075;-54
2022/04/12 04:55:16;;;;;;;6.97;2.15;;;;;;;6.01;47.49;100073.41;1757557;79;21078;-54
2022/04/12 04:57:45;;;;;;;7.37;1.67;;;;;;;6.04;47.53;100069.30;1755884;79;21189;-54
2022/04/12 05:00:16;;;;;;;6.50;1.92;;;;;;;6.06;47.27;100066.11;1763051;81;21125;-54
2022/04/12 05:02:48;;;;;;;7.15;2.30;;;;;;;6.10;47.26;100064.98;1757689;79;21040;-54
2022/04/12 05:05:14;;;;;;;7.40;2.30;;;;;;;6.12;47.23;100059.19;1754457;79;21083;-52
2022/04/12 05:07:44;;;;;;;6.50;1.87;;;;;;;6.10;46.78;100053.23;1766496;80;21034;-52
2022/04/12 05:10:15;;;;;;;4.50;1.50;;;;;;;6.16;47.00;100061.11;1771952;81;21862;-54
2022/04/12 05:12:42;;;;;;;5.53;1.98;;;;;;;6.18;46.94;100062.32;1759021;79;21102;-51
2022/04/12 05:15:10;;;;;;;6.92;1.67;;;;;;;6.19;47.13;100060.91;1755017;80;21007;-52
2022/04/12 05:17:38;;;;;;;8.15;2.12;;;;;;;6.20;46.83;100056.52;1744446;81;21059;-52
2022/04/12 05:20:09;;;;;;;5.37;1.65;;;;;;;6.22;47.20;100055.94;1765152;80;21028;-52
2022/04/12 05:22:37;;;;;;;5.65;1.80;;;;;;;6.24;47.03;100054.91;1752138;80;21100;-51
2022/04/12 05:25:05;;;;;;;7.53;2.12;;;;;;;6.28;46.75;100060.77;1752671;81;21043;-52
2022/04/12 05:27:34;;;;;;;7.60;2.62;;;;;;;6.30;46.79;100061.48;1753804;80;21999;-54
2022/04/12 05:30:02;;;;;;;6.05;1.87;;;;;;;6.32;46.70;100056.98;1741697;82;21051;-54
2022/04/12 05:32:29;;;;;;;6.67;1.87;;;;;;;6.36;46.60;100066.31;1761018;79;21043;-54
2022/04/12 05:34:56;;;;;;;6.62;1.95;;;;;;;6.40;46.64;100065.62;1758708;80;21095;-54
2022/04/12 05:37:23;;;;;;;6.17;1.95;;;;;;;6.40;46.55;100066.94;1749296;81;21012;-54
2022/04/12 05:39:49;;;;;;;5.42;1.55;;;;;;;6.44;46.32;100076.23;1750778;79;21118;-52
2022/04/12 05:42:16;;;;;;;5.12;1.92;;;;;;;6.47;46.39;100076.03;1768831;80;21055;-50
2022/04/12 05:44:44;;;;;;;5.03;1.87;;;;;;;6.49;46.20;100077.61;1764515;79;21004;-54
2022/04/12 05:47:12;;;;;;;6.62;2.27;;;;;;;6.50;46.30;100074.03;1765047;81;22232;-51
2022/04/12 05:49:39;;;;;;;5.35;2.25;;;;;;;6.54;46.50;100080.37;1757933;80;22345;-51
2022/04/12 05:52:08;;;;;;;4.85;1.55;;;;;;;6.50;46.04;100074.03;1763837;80;21540;-52
2022/04/12 05:54:34;;;;;;;6.20;2.42;;;;;;;6.56;46.21;100076.72;1760624;79;21037;-52
2022/04/12 05:57:01;;;;;;;7.78;2.50;;;;;;;6.59;46.37;100079.58;1759866;80;21619;-52
2022/04/12 05:59:28;;;;;;;8.05;2.15;;;;;;;6.62;46.07;100081.99;1754307;79;21824;-52
2022/04/12 06:01:55;;;;;;;7.20;2.08;;;;;;;6.64;45.97;100077.48;1757785;80;21145;-52
2022/04/12 06:04:23;;;;;;;5.78;2.33;;;;;;;6.65;45.88;100077.86;1753998;80;21019;-52
2022/04/12 06:06:51;;;;;;;6.33;2.20;;;;;;;6.67;46.29;100086.44;1756083;79;21117;-54
2022/04/12 06:09:19;;;;;;;5.08;1.87;;;;;;;6.64;45.73;100085.33;1757591;79;21074;-52
2022/04/12 06:11:47;;;;;;;7.55;2.50;;;;;;;6.67;46.02;100089.05;1762150;80;21078;-52
2022/04/12 06:14:15;;;;;;;7.55;2.27;;;;;;;6.68;46.17;100092.88;1754874;80;21018;-52
2022/04/12 06:16:43;;;;;;;6.45;2.40;;;;;;;6.71;45.95;100090.53;1765186;80;21120;-54
2022/04/12 06:19:11;;;;;;;5.30;2.33;;;;;;;6.75;46.24;100088.05;1756479;79;21035;-50
2022/04/12 06:21:37;;;;;;;8.85;2.30;;;;;;;6.79;46.04;100088.23;1756200;80;21033;-64
2022/04/12 06:24:04;;;;;;;5.55;1.70;;;;;;;6.79;45.45;100081.69;1763682;79;21156;-50
2022/04/12 06:26:32;;;;;;;7.35;2.12;;;;;;;6.86;45.60;100081.63;1759301;80;21059;-51
2022/04/12 06:28:59;;;;;;;5.78;2.50;;;;;;;6.87;45.39;100083.27;1748757;79;21138;-50
2022/04/12 06:31:26;;;;;;;6.03;2.30;;;;;;;6.85;45.25;100090.88;1751766;81;21114;-50
2022/04/12 06:33:53;;;;;;;5.10;1.82;;;;;;;6.84;45.44;100082.66;1760788;81;21115;-50
2022/04/12 06:36:22;;;;;;;7.70;2.10;;;;;;;6.88;45.48;100085.44;1756749;79;21023;-52
2022/04/12 06:38:50;;;;;;;7.87;2.40;;;;;;;6.93;45.38;100086.44;1756730;80;21023;-52
2022/04/12 06:41:17;;;;;;;8.48;2.33;;;;;;;6.94;45.27;100081.55;1741158;82;21168;-51
2022/04/12 06:43:44;;;;;;;6.97;2.45;;;;;;;6.97;45.25;100082.65;1752739;79;21086;-51
2022/04/12 06:46:10;;;;;;;8.95;2.37;;;;;;;7.01;45.17;100084.09;1755248;79;21031;-51
2022/04/12 06:48:37;;;;;;;5.67;2.02;;;;;;;7.00;44.83;100074.59;1758913;81;21221;-50
2022/04/12 06:51:03;;;;;;;10.00;2.42;;;;;;;7.04;45.13;100081.27;1770165;79;21096;-50
2022/04/12 06:53:34;;;;;;;7.85;2.70;;;;;;;7.03;44.88;100073.91;1756468;81;21047;-51
2022/04/12 06:56:00;;;;;;;9.85;2.35;;;;;;;7.12;45.30;100077.65;1766834;81;21130;-50
2022/04/12 06:58:27;;;;;;;6.62;1.90;;;;;;;7.17;45.62;100067.69;1760540;80;21047;-50
2022/04/12 07:00:53;;;;;;;6.37;2.22;;;;;;;7.25;44.82;100064.54;1761579;79;21103;-50
2022/04/12 07:03:21;;;;;;;5.47;2.02;;;;;;;7.34;44.64;100068.28;1756132;79;21552;-50
2022/04/12 07:05:49;;;;;;;7.33;2.15;;;;;;;7.39;44.38;100077.46;1752664;80;21031;-50
2022/04/12 07:08:15;;;;;;;7.08;2.62;;;;;;;7.45;44.45;100061.81;1751361;79;21066;-52
2022/04/12 07:10:45;;;;;;;6.20;2.20;;;;;;;7.51;44.02;100074.44;1764660;80;21078;-50
2022/04/12 07:13:12;;;;;;;6.90;1.87;;;;;;;7.54;43.86;100071.59;1769054;79;21160;-51
2022/04/12 07:15:40;;;;;;;6.85;2.62;;;;;;;7.59;44.26;100068.17;1759702;79;21083;-51
2022/04/12 07:18:08;;;;;;;9.55;2.95;;;;;;;7.66;44.05;100063.80;1764834;79;21082;-51
2022/04/12 07:20:36;;;;;;;12.78;2.45;;;;;;;7.70;44.29;100062.17;1763079;80;21536;-50
2022/04/12 07:23:04;;;;;;;6.37;2.62;;;;;;;7.78;43.88;100058.97;1762035;80;21060;-50
2022/04/12 07:25:31;;;;;;;9.03;2.58;;;;;;;7.87;43.95;100063.55;1757400;79;21253;-51
2022/04/12 07:27:58;;;;;;;9.05;2.20;;;;;;;7.89;42.84;100049.03;1758469;80;21095;-51
2022/04/12 07:30:24;;;;;;;8.03;2.85;;;;;;;7.93;43.03;100039.49;1766232;79;21086;-50
2022/04/12 07:32:51;;;;;;;7.12;1.90;;;;;;;7.97;42.64;100043.57;1768449;80;21291;-51
2022/04/12 07:35:20;;;;;;;8.15;2.83;;;;;;;8.05;42.79;100045.60;1760297;80;21074;-51
2022/04/12 07:37:47;;;;;;;8.95;3.30;;;;;;;8.12;42.54;100051.22;1763284;79;21155;-51
2022/04/12 07:40:14;;;;;;;11.57;2.35;;;;;;;8.18;42.45;100040.28;1764869;79;21427;-51
2022/04/12 07:42:41;;;;;;;5.42;2.47;;;;;;;8.28;42.51;100044.36;1762779;80;21063;-51
2022/04/12 07:45:09;;;;;;;12.58;2.98;;;;;;;8.36;42.44;100038.06;1759328;79;21070;-51
2022/04/12 07:47:35;;;;;;;8.55;2.50;;;;;;;8.44;42.06;100036.18;1763126;80;21557;-51
2022/04/12 07:50:04;;;;;;;7.80;2.17;;;;;;;8.50;42.02;100025.23;1764909;79;21162;-50
2022/04/12 07:52:30;;;;;;;7.78;2.20;;;;;;;8.63;42.38;100032.99;1766211;80;21063;-50
2022/04/12 07:54:57;;;;;;;5.33;1.62;;;;;;;8.71;41.40;100034.06;1763600;79;21593;-50
2022/04/12 07:57:28;;;;;;;6.87;1.95;;;;;;;8.84;41.85;100038.34;1763337;80;21059;-50
2022/04/12 07:59:57;;;;;;;8.45;2.22;;;;;;;8.90;40.42;100041.80;1759154;79;21042;-51
2022/04/12 08:02:23;;;;;;;7.25;1.90;;;;;;;8.94;39.79;100031.41;1761879;80;21942;-51
2022/04/12 08:04:51;;;;;;;7.00;2.27;;;;;;;8.97;40.22;100044.30;1757397;79;21008;-52
2022/04/12 08:07:18;;;;;;;7.42;2.45;;;;;;;9.01;40.55;100034.39;1736084;80;21037;-51
2022/04/12 08:09:45;;;;;;;6.35;1.80;;;;;;;9.01;40.02;100047.51;1753355;79;21023;-50
2022/04/12 08:12:12;;;;;;;6.55;2.60;;;;;;;8.99;39.90;100039.75;1760872;80;21040;-51
2022/04/12 08:14:39;;;;;;;6.83;2.12;;;;;;;8.98;39.91;100031.55;1762243;80;21804;-51
2022/04/12 08:17:06;;;;;;;7.83;2.12;;;;;;;9.02;40.05;100045.25;1759439;81;21640;-52
2022/04/12 08:19:34;;;;;;;7.78;2.80;;;;;;;9.06;39.81;100020.42;1757393;79;21043;-51
2022/04/12 08:22:02;;;;;;;7.58;1.95;;;;;;;9.14;39.89;100050.02;1761068;81;21026;-51
2022/04/12 08:24:31;;;;;;;8.88;2.05;;;;;;;9.12;40.09;100040.94;1757210;79;21037;-51
2022/04/12 08:26:57;;;;;;;7.30;2.62;;;;;;;9.11;39.10;100028.30;1759526;79;21108;-51
2022/04/12 08:29:24;;;;;;;6.35;1.92;;;;;;;9.16;39.65;100053.34;1760130;80;21042;-51
2022/04/12 08:31:52;;;;;;;7.08;2.02;;;;;;;9.20;39.93;100049.53;1759385;81;21126;-52
2022/04/12 08:34:20;;;;;;;5.60;1.98;;;;;;;9.21;39.43;100048.55;1761255;79;21082;-51
2022/04/12 08:36:47;;;;;;;7.25;1.98;;;;;;;9.28;39.99;100052.39;1764509;79;21109;-52
2022/04/12 08:39:13;;;;;;;7.20;2.30;;;;;;;9.39;40.49;100052.34;1756332;79;21153;-51
2022/04/12 08:41:40;;;;;;;6.45;2.10;;;;;;;9.42;39.43;100053.90;1755610;81;21023;-51
2022/04/12 08:44:07;;;;;;;6.28;1.92;;;;;;;9.45;39.61;100063.67;1758747;79;21091;-51
2022/04/12 08:46:35;;;;;;;9.00;2.60;;;;;;;9.39;38.64;100052.83;1752313;81;21049;-51
2022/04/12 08:49:01;;;;;;;5.17;1.82;;;;;;;9.37;38.90;100033.25;1726715;80;21034;-52
2022/04/12 08:51:29;;;;;;;8.78;2.85;;;;;;;9.41;39.48;100032.03;1752830;81;21141;-51
2022/04/12 08:53:57;;;;;;;5.92;2.00;;;;;;;9.38;38.97;100042.81;1749691;81;21036;-52
2022/04/12 08:56:25;;;;;;;9.88;1.80;;;;;;;9.45;39.61;100049.72;1755743;79;21043;-51
2022/04/12 08:58:53;;;;;;;5.55;1.87;;;;;;;9.51;39.67;100037.37;1729926;79;21040;-51
2022/04/12 09:01:20;;;;;;;6.47;1.80;;;;;;;9.52;39.54;100042.17;1748694;79;21551;-51
2022/04/12 09:03:47;;;;;;;6.42;2.40;;;;;;;9.58;40.30;100032.46;1753765;81;21557;-51
2022/04/12 09:06:13;;;;;;;6.22;1.72;;;;;;;9.67;40.60;100036.49;1748200;79;21596;-51
2022/04/12 09:08:42;;;;;;;8.20;2.22;;;;;;;9.78;40.09;100043.48;1754540;79;22014;-51
2022/04/12 09:11:09;;;;;;;6.30;1.70;;;;;;;9.76;38.55;100017.82;1771479;80;21066;-51
2022/04/12 09:13:37;;;;;;;5.90;1.40;;;;;;;9.79;38.37;100012.31;1758258;80;21043;-51
2022/04/12 09:16:09;;;;;;;6.12;1.90;;;;;;;9.91;38.98;100019.66;1698313;83;21793;-51
2022/04/12 09:18:41;;;;;;;4.15;1.60;;;;;;;9.95;38.13;100007.09;1712533;81;21037;-50
2022/04/12 09:22:38;;;;;;;4.05;1.40;;;;;;;10.06;38.13;100012.30;1788776;79;22661;-51
2022/04/12 09:25:06;;;;;;;4.05;1.00;;;;;;;10.13;38.82;100011.30;1749418;80;21066;-52
2022/04/12 09:27:35;;;;;;;7.95;1.20;;;;;;;10.22;37.87;99999.53;1750411;80;21107;-52
2022/04/12 09:30:09;;;;;;;5.62;1.30;;;;;;;10.20;34.93;100004.09;1747619;80;20982;-52
2022/04/12 09:32:39;;;;;;;7.03;0.90;;;;;;;10.18;34.53;100009.11;1746215;81;21092;-51
2022/04/12 09:35:08;;;;;;;5.78;1.22;;;;;;;10.23;36.68;100011.70;1749141;80;21587;-52
2022/04/12 09:37:37;;;;;;;3.37;1.15;;;;;;;10.25;35.91;100013.37;1752396;80;21073;-52
2022/04/12 09:40:06;;;;;;;5.10;1.30;;;;;;;10.19;36.09;100026.08;1746118;80;21128;-52
2022/04/12 09:42:50;;;;;;;4.80;1.00;;;;;;;10.27;36.42;100032.02;1751204;80;21555;-52
2022/04/12 09:45:27;;;;;;;5.53;1.22;;;;;;;10.26;36.09;100012.42;1756227;80;21073;-52
2022/04/12 09:47:59;;;;;;;4.47;1.05;;;;;;;10.16;36.24;100012.36;1746366;80;21035;-51
2022/04/12 09:50:29;;;;;;;7.65;1.50;;;;;;;10.11;35.92;100023.26;1741164;80;21101;-50
2022/04/12 09:53:04;;;;;;;6.50;1.10;;;;;;;10.14;37.00;100026.95;1747282;80;21107;-51
2022/04/12 09:55:43;;;;;;;6.42;1.37;;;;;;;10.14;36.12;100034.02;1744039;80;21050;-52
2022/04/12 09:58:14;;;;;;;6.03;0.98;;;;;;;10.11;36.41;100035.09;1750070;80;21055;-52
2022/04/12 10:00:45;;;;;;;4.47;0.90;;;;;;;10.12;36.43;100038.54;1746240;81;22253;-52
2022/04/12 10:03:14;;;;;;;4.10;1.30;;;;;;;10.09;35.88;100029.63;1750760;80;21086;-53
2022/04/12 10:05:41;;;;;;;4.22;1.22;;;;;;;10.18;37.03;100031.47;1751113;80;21155;-52
2022/04/12 10:08:12;;;;;;;4.28;0.90;;;;;;;10.21;37.02;100037.78;1751035;80;21106;-52
2022/04/12 10:10:43;;;;;;;4.47;1.12;;;;;;;10.29;37.91;100041.92;1752750;80;21042;-53
2022/04/12 10:13:14;;;;;;;7.30;1.25;;;;;;;10.39;37.04;100059.94;1755785;81;21106;-53
2022/04/12 10:15:41;;;;;;;5.53;1.32;;;;;;;10.38;35.84;100044.28;1736780;80;21097;-52
2022/04/12 10:18:07;;;;;;;4.03;1.25;;;;;;;10.45;35.05;100052.48;1746344;81;21772;-52
2022/04/12 10:20:34;;;;;;;3.42;1.07;;;;;;;10.53;35.47;100057.44;1745742;80;21528;-52
2022/04/12 10:23:02;;;;;;;5.55;1.07;;;;;;;10.55;36.32;100062.58;1735723;81;20976;-52
2022/04/12 10:25:28;;;;;;;4.12;1.15;;;;;;;10.48;34.13;100059.62;1734347;80;21553;-53
2022/04/12 10:27:59;;;;;;;5.92;1.17;;;;;;;10.40;34.08;100051.55;1728677;82;21047;-53
2022/04/12 10:30:29;;;;;;;3.45;1.12;;;;;;;10.38;34.41;100023.23;1737861;80;21594;-53
2022/04/12 10:33:06;;;;;;;4.25;1.17;;;;;;;10.42;35.18;100040.41;1735938;82;21102;-51
2022/04/12 10:35:56;;;;;;;13.15;1.30;;;;;;;10.38;35.26;100046.91;1731795;80;21570;-51
2022/04/12 10:38:27;;;;;;;4.22;1.37;;;;;;;10.44;35.90;100052.98;1738755;80;21097;-52
2022/04/12 10:40:56;;;;;;;8.58;1.30;;;;;;;10.46;35.82;100056.30;1733727;80;21541;-54
2022/04/12 10:43:33;;;;;;;4.00;1.07;;;;;;;10.55;35.67;100068.66;1733497;81;21043;-53
2022/04/12 10:46:04;;;;;;;;;;;;;;;10.65;36.05;100025.80;1734607;82;21024;-52
2022/04/12 10:48:31;;;;;;;6.55;1.50;;;;;;;10.71;35.43;100059.48;1742370;82;20181;-52
2022/04/12 10:51:00;;;;;;;3.80;1.02;;;;;;;10.73;35.27;100045.70;1730399;80;21063;-52
2022/04/12 10:53:44;;;;;;;3.20;1.02;;;;;;;10.70;35.05;100038.89;1733302;80;21043;-52
2022/04/12 10:56:16;;;;;;;4.12;1.20;;;;;;;10.75;35.28;100047.72;1688699;82;21136;-52
2022/04/12 10:58:44;;;;;;;3.87;1.12;;;;;;;10.81;35.01;100051.60;1709036;82;21087;-52
2022/04/12 11:01:27;;;;;;;4.87;1.15;;;;;;;10.85;35.11;100052.53;1726587;80;21011;-54
2022/04/12 11:03:55;;;;;;;3.22;1.10;;;;;;;10.92;34.91;100044.44;1736620;82;21008;-51
2022/04/12 11:06:26;;;;;;;3.70;1.15;;;;;;;10.99;34.58;100054.45;1732608;80;21051;-51
2022/04/12 11:08:54;;;;;;;4.05;1.22;;;;;;;11.10;35.23;100060.45;1735251;80;21887;-51
2022/04/12 11:11:26;;;;;;;5.60;1.40;;;;;;;11.04;33.97;100046.98;1733189;80;21050;-51
2022/04/12 11:13:54;;;;;;;3.85;1.10;;;;;;;11.03;34.59;100061.10;1745380;80;21051;-51
2022/04/12 11:16:26;;;;;;;2.52;0.85;;;;;;;11.03;34.34;100050.57;1731845;80;21055;-51
2022/04/12 11:18:58;;;;;;;4.50;1.20;;;;;;;11.10;34.15;100062.25;1738986;82;21055;-52
2022/04/12 11:21:26;;;;;;;3.33;0.90;;;;;;;11.20;34.15;100054.39;1736567;80;21152;-51
2022/04/12 11:24:04;;;;;;;3.20;1.12;;;;;;;11.23;34.57;100051.45;1750534;81;21065;-51
2022/04/12 11:26:48;;;;;;;6.33;1.25;;;;;;;11.20;33.84;100043.86;1748992;80;21687;-51
2022/04/12 11:29:19;;;;;;;4.30;1.10;;;;;;;11.03;33.95;100065.91;1748993;80;21528;-51
2022/04/12 11:31:53;;;;;;;3.42;0.90;;;;;;;10.92;33.75;100056.78;1746178;80;21027;-51
2022/04/12 11:34:22;;;;;;;4.05;1.07;;;;;;;10.85;34.58;100064.87;1748299;80;21924;-51
2022/04/12 11:37:05;;;;;;;3.45;0.70;;;;;;;10.71;35.11;100050.27;1744769;80;21093;-51
2022/04/12 11:39:34;;;;;;;4.83;1.10;;;;;;;10.63;34.58;100064.56;1748812;81;21043;-51